createdAt,value
2023-05-07T00:01:32.509Z,10.92
2023-05-07T00:03:59.711Z,10.90
2023-05-07T00:06:27.101Z,10.86
2023-05-07T00:08:53.600Z,10.85
2023-05-07T00:11:20.800Z,10.78
2023-05-07T00:13:48.851Z,10.78
2023-05-07T00:16:19.272Z,10.72
2023-05-07T00:18:46.182Z,10.68
2023-05-07T00:21:12.935Z,10.64
2023-05-07T00:23:39.435Z,10.61
2023-05-07T00:26:49.642Z,10.47
2023-05-07T00:29:24.156Z,10.45
2023-05-07T00:31:51.738Z,10.42
2023-05-07T00:34:19.679Z,10.41
2023-05-07T00:36:46.219Z,10.41
2023-05-07T00:39:13.417Z,10.38
2023-05-07T00:41:39.957Z,10.36
2023-05-07T00:44:06.457Z,10.33
2023-05-07T00:46:59.711Z,10.29
2023-05-07T00:49:39.950Z,10.26
2023-05-07T00:52:22.829Z,10.24
2023-05-07T00:54:54.148Z,10.20
2023-05-07T00:57:22.705Z,10.21
2023-05-07T01:00:22.873Z,10.20
2023-05-07T01:02:50.284Z,10.18
2023-05-07T01:05:19.968Z,10.13
2023-05-07T01:07:48.377Z,10.11
2023-05-07T01:10:55.195Z,10.07
2023-05-07T01:13:34.748Z,10.04
2023-05-07T01:16:01.504Z,10.06
2023-05-07T01:18:30.153Z,10.04
2023-05-07T01:21:00.971Z,10.03
2023-05-07T01:23:28.772Z,10.02
2023-05-07T01:25:55.990Z,9.95
2023-05-07T01:28:22.943Z,9.97
2023-05-07T01:30:54.487Z,9.94
2023-05-07T01:33:38.333Z,9.97
2023-05-07T01:36:07.647Z,9.94
2023-05-07T01:38:39.537Z,10.02
2023-05-07T01:41:18.610Z,10.05
2023-05-07T01:43:45.676Z,10.06
2023-05-07T01:46:13.415Z,10.04
2023-05-07T01:52:47.769Z,9.93
2023-05-07T01:55:18.866Z,9.92
2023-05-07T01:57:45.514Z,9.90
2023-05-07T02:00:12.689Z,9.88
2023-05-07T02:13:21.897Z,9.78
2023-05-07T02:15:51.315Z,9.75
2023-05-07T02:22:17.150Z,9.74
2023-05-07T02:24:43.697Z,9.78
2023-05-07T02:27:54.206Z,9.76
2023-05-07T02:30:22.275Z,9.77
2023-05-07T02:32:49.035Z,9.83
2023-05-07T02:45:10.921Z,9.81
2023-05-07T02:48:01.220Z,9.85
2023-05-07T02:50:28.128Z,9.91
2023-05-07T02:52:54.841Z,9.96
2023-05-07T02:55:21.424Z,9.95
2023-05-07T03:01:50.275Z,9.92
2023-05-07T03:13:09.250Z,9.87
2023-05-07T03:15:46.138Z,9.87
2023-05-07T03:18:12.766Z,9.91
2023-05-07T03:20:56.145Z,9.93
2023-05-07T03:23:24.669Z,9.91
2023-05-07T03:25:51.725Z,9.90
2023-05-07T03:28:18.288Z,9.90
2023-05-07T03:47:11.804Z,9.98
2023-05-07T03:57:28.085Z,10.10
2023-05-07T04:07:16.037Z,10.06
2023-05-07T04:09:42.601Z,10.11
2023-05-07T04:13:09.351Z,10.12
2023-05-07T04:15:36.923Z,10.10
2023-05-07T04:21:58.052Z,10.26
2023-05-07T04:33:24.124Z,10.52
2023-05-07T04:43:26.517Z,10.59
2023-05-07T04:45:53.313Z,10.62
2023-05-07T04:48:20.652Z,10.64
2023-05-07T04:50:51.767Z,10.69
2023-05-07T04:54:15.593Z,10.74
2023-05-07T04:56:42.445Z,10.85
2023-05-07T04:59:53.658Z,11.02
2023-05-07T05:02:20.909Z,11.19
2023-05-07T05:04:47.615Z,11.37
2023-05-07T05:07:14.344Z,11.52
2023-05-07T05:09:40.857Z,11.73
2023-05-07T05:12:08.345Z,11.98
2023-05-07T05:14:52.637Z,12.22
2023-05-07T05:17:22.738Z,12.47
2023-05-07T05:20:40.437Z,12.69
2023-05-07T05:23:32.919Z,12.99
2023-05-07T05:26:40.475Z,13.27
2023-05-07T05:29:38.101Z,13.56
2023-05-07T05:36:06.967Z,14.45
2023-05-07T05:38:33.558Z,14.73
2023-05-07T05:41:00.125Z,15.06
2023-05-07T05:43:26.667Z,15.33
2023-05-07T05:45:53.239Z,15.55
2023-05-07T05:48:20.720Z,15.76
2023-05-07T05:50:47.192Z,15.97
2023-05-07T05:53:13.671Z,16.14
2023-05-07T05:55:40.366Z,16.24
2023-05-07T05:58:06.889Z,16.34
2023-05-07T06:00:33.653Z,16.39
2023-05-07T06:03:00.538Z,16.46
2023-05-07T06:05:27.734Z,16.47
2023-05-07T06:07:54.450Z,16.37
2023-05-07T06:10:21.026Z,16.40
2023-05-07T06:12:47.629Z,16.56
2023-05-07T06:15:14.163Z,16.70
2023-05-07T06:17:40.900Z,16.77
2023-05-07T06:20:08.223Z,16.54
2023-05-07T06:22:34.876Z,16.37
2023-05-07T06:25:01.536Z,16.46
2023-05-07T06:27:29.029Z,16.72
2023-05-07T06:29:55.662Z,16.90
2023-05-07T06:32:22.308Z,17.10
2023-05-07T06:34:48.825Z,17.55
2023-05-07T06:37:15.594Z,17.72
2023-05-07T06:39:42.171Z,17.88
2023-05-07T06:42:08.640Z,17.88
2023-05-07T06:44:35.166Z,17.95
2023-05-07T06:47:02.240Z,18.28
2023-05-07T06:49:29.105Z,18.62
2023-05-07T06:51:56.440Z,18.86
2023-05-07T06:54:24.444Z,18.81
2023-05-07T06:56:51.470Z,18.91
2023-05-07T07:02:10.590Z,19.07
2023-05-07T07:05:05.110Z,19.18
2023-05-07T07:07:43.428Z,19.36
2023-05-07T07:13:47.423Z,19.99
2023-05-07T07:39:29.983Z,24.95
2023-05-07T07:42:06.959Z,25.89
2023-05-07T07:44:40.831Z,26.24
2023-05-07T07:47:07.434Z,26.92
2023-05-07T07:49:34.020Z,27.77
2023-05-07T07:52:01.775Z,28.58
2023-05-07T07:54:28.274Z,29.62
2023-05-07T07:56:54.928Z,29.83
2023-05-07T07:59:21.590Z,30.28
2023-05-07T08:02:01.211Z,31.51
2023-05-07T08:04:31.531Z,32.06
2023-05-07T08:07:12.621Z,30.84
2023-05-07T08:09:53.023Z,31.46
2023-05-07T08:12:43.695Z,32.40
2023-05-07T08:16:17.766Z,33.39
2023-05-07T08:22:44.699Z,31.65
2023-05-07T08:25:43.613Z,32.08
2023-05-07T08:39:49.097Z,32.34
2023-05-07T09:02:38.338Z,36.14
2023-05-07T09:12:50.465Z,35.28
2023-05-07T09:15:17.231Z,35.55
2023-05-07T09:17:44.552Z,35.94
2023-05-07T09:20:38.343Z,35.69
2023-05-07T09:23:05.376Z,34.80
2023-05-07T09:25:33.444Z,34.36
2023-05-07T09:28:04.852Z,35.15
2023-05-07T09:30:32.647Z,35.74
2023-05-07T09:33:00.385Z,36.28
2023-05-07T09:35:28.477Z,36.76
2023-05-07T09:37:56.637Z,37.33
2023-05-07T09:40:25.125Z,36.19
2023-05-07T09:47:15.739Z,35.70
2023-05-07T09:53:49.640Z,37.27
2023-05-07T09:56:17.447Z,37.35
2023-05-07T09:58:44.766Z,36.73
2023-05-07T10:01:13.073Z,37.14
2023-05-07T10:03:43.557Z,35.51
2023-05-07T10:06:11.693Z,34.20
2023-05-07T10:09:34.507Z,34.47
2023-05-07T10:12:04.003Z,33.77
2023-05-07T10:14:30.807Z,33.55
2023-05-07T10:17:13.847Z,34.31
2023-05-07T10:23:30.444Z,36.36
2023-05-07T10:26:10.027Z,35.98
2023-05-07T10:28:43.994Z,35.64
2023-05-07T10:38:27.896Z,35.95
2023-05-07T10:40:54.872Z,35.98
2023-05-07T10:43:21.465Z,35.37
2023-05-07T10:46:15.602Z,35.41
2023-05-07T10:49:04.278Z,35.68
2023-05-07T10:52:19.107Z,35.80
2023-05-07T11:03:01.360Z,34.62
2023-05-07T11:05:34.403Z,34.83
2023-05-07T11:08:04.171Z,35.31
2023-05-07T11:10:59.154Z,34.23
2023-05-07T11:13:45.858Z,33.64
2023-05-07T11:16:19.088Z,35.53
2023-05-07T11:18:54.376Z,36.22
2023-05-07T11:21:33.758Z,35.47
2023-05-07T11:27:53.529Z,34.76
2023-05-07T11:30:43.439Z,34.24
2023-05-07T11:33:12.370Z,34.51
2023-05-07T11:35:46.890Z,35.59
2023-05-07T11:38:14.355Z,35.52
2023-05-07T11:41:05.733Z,36.50
2023-05-07T11:43:33.718Z,36.63
2023-05-07T11:46:37.202Z,36.18
2023-05-07T11:49:03.994Z,35.55
2023-05-07T11:51:33.396Z,34.31
2023-05-07T11:53:59.931Z,35.38
2023-05-07T11:56:44.410Z,36.12
2023-05-07T11:59:20.063Z,36.78
2023-05-07T12:12:04.998Z,33.51
2023-05-07T12:14:31.771Z,33.87
2023-05-07T12:20:46.085Z,32.76
2023-05-07T12:23:13.598Z,33.44
2023-05-07T12:37:04.792Z,32.13
2023-05-07T12:44:01.953Z,31.53
2023-05-07T12:46:28.488Z,31.15
2023-05-07T12:56:17.094Z,27.43
2023-05-07T13:14:06.014Z,26.69
2023-05-07T13:16:32.564Z,26.63
2023-05-07T13:28:09.463Z,25.89
2023-05-07T13:33:50.657Z,25.64
2023-05-07T13:47:18.866Z,25.67
2023-05-07T14:04:42.431Z,25.38
2023-05-07T14:11:18.889Z,25.52
2023-05-07T14:17:27.534Z,25.21
2023-05-07T14:26:47.050Z,25.25
2023-05-07T14:26:50.618Z,24.80
2023-05-07T14:29:24.024Z,24.72
2023-05-07T14:32:09.001Z,24.37
2023-05-07T14:34:41.983Z,24.08
2023-05-07T14:37:08.519Z,24.32
2023-05-07T14:39:37.366Z,24.52
2023-05-07T14:42:03.904Z,24.53
2023-05-07T14:44:31.691Z,24.45
2023-05-07T14:47:05.544Z,24.21
2023-05-07T14:49:32.045Z,23.82
2023-05-07T14:52:00.226Z,24.06
2023-05-07T14:54:26.777Z,23.73
2023-05-07T14:57:01.212Z,23.85
2023-05-07T14:59:27.924Z,23.55
2023-05-07T15:01:55.333Z,23.42
2023-05-07T15:04:24.880Z,23.38
2023-05-07T15:06:51.399Z,23.37
2023-05-07T15:09:17.841Z,23.37
2023-05-07T15:11:44.387Z,23.29
2023-05-07T15:14:10.966Z,23.13
2023-05-07T15:16:37.635Z,22.96
2023-05-07T15:19:04.140Z,23.12
2023-05-07T15:21:31.860Z,23.13
2023-05-07T15:23:58.350Z,23.04
2023-05-07T15:26:24.828Z,22.89
2023-05-07T15:28:51.559Z,22.80
2023-05-07T15:31:18.266Z,22.89
2023-05-07T15:33:45.691Z,22.91
2023-05-07T15:36:12.239Z,22.74
2023-05-07T15:38:38.728Z,22.55
2023-05-07T15:41:05.377Z,22.54
2023-05-07T15:43:31.916Z,22.46
2023-05-07T15:48:25.247Z,22.26
2023-05-07T15:50:51.831Z,22.23
2023-05-07T15:53:18.366Z,22.27
2023-05-07T15:55:45.547Z,22.25
2023-05-07T15:58:13.085Z,22.18
2023-05-07T16:00:41.321Z,22.20
2023-05-07T16:03:08.765Z,22.18
2023-05-07T16:05:35.560Z,22.16
2023-05-07T16:08:02.134Z,22.11
2023-05-07T16:10:28.753Z,22.03
2023-05-07T16:12:55.398Z,22.01
2023-05-07T16:15:21.903Z,21.94
2023-05-07T16:17:49.748Z,21.91
2023-05-07T16:20:19.803Z,21.84
2023-05-07T16:22:46.723Z,21.85
2023-05-07T16:25:14.791Z,21.85
2023-05-07T16:27:41.685Z,21.87
2023-05-07T16:30:08.927Z,21.82
2023-05-07T16:32:36.273Z,21.69
2023-05-07T16:35:03.412Z,21.63
2023-05-07T16:37:30.239Z,21.49
2023-05-07T16:39:56.793Z,21.51
2023-05-07T16:42:23.332Z,21.53
2023-05-07T16:44:50.002Z,21.46
2023-05-07T16:47:16.515Z,21.39
2023-05-07T16:49:42.999Z,21.32
2023-05-07T16:52:09.593Z,21.22
2023-05-07T16:54:37.025Z,21.19
2023-05-07T16:57:03.748Z,21.13
2023-05-07T16:59:32.409Z,21.18
2023-05-07T17:01:59.428Z,21.17
2023-05-07T17:04:26.333Z,21.14
2023-05-07T17:06:52.880Z,21.10
2023-05-07T17:09:19.346Z,21.08
2023-05-07T17:11:45.846Z,21.05
2023-05-07T17:14:12.346Z,20.98
2023-05-07T17:16:38.882Z,20.97
2023-05-07T17:19:05.445Z,20.89
2023-05-07T17:21:32.256Z,20.86
2023-05-07T17:23:58.910Z,20.82
2023-05-07T17:26:25.530Z,20.82
2023-05-07T17:28:52.025Z,20.72
2023-05-07T17:31:18.709Z,20.68
2023-05-07T17:33:45.267Z,20.64
2023-05-07T17:36:11.741Z,20.56
2023-05-07T17:38:38.430Z,20.54
2023-05-07T17:41:04.978Z,20.44
2023-05-07T17:43:31.455Z,20.34
2023-05-07T17:45:58.060Z,20.26
2023-05-07T17:48:24.913Z,20.18
2023-05-07T17:50:51.604Z,20.08
2023-05-07T17:53:18.295Z,19.97
2023-05-07T17:55:45.393Z,19.88
2023-05-07T17:58:12.474Z,19.81
2023-05-07T18:00:39.171Z,19.70
2023-05-07T18:03:05.922Z,19.60
2023-05-07T18:05:36.234Z,19.54
2023-05-07T18:08:02.806Z,19.44
2023-05-07T18:10:29.336Z,19.37
2023-05-07T18:12:56.218Z,19.31
2023-05-07T18:15:22.746Z,19.22
2023-05-07T18:17:49.294Z,19.17
2023-05-07T18:20:15.959Z,19.10
2023-05-07T18:22:42.508Z,19.04
2023-05-07T18:25:09.317Z,18.96
2023-05-07T18:27:35.810Z,18.90
2023-05-07T18:30:02.905Z,18.86
2023-05-07T18:32:29.535Z,18.77
2023-05-07T18:34:56.105Z,18.69
2023-05-07T18:37:24.681Z,18.63
2023-05-07T18:39:52.583Z,18.55
2023-05-07T18:42:19.154Z,18.50
2023-05-07T18:44:45.648Z,18.42
2023-05-07T18:47:13.710Z,18.35
2023-05-07T18:49:40.286Z,18.29
2023-05-07T18:52:06.790Z,18.21
2023-05-07T18:54:33.333Z,18.18
2023-05-07T18:56:59.913Z,18.16
2023-05-07T18:59:26.382Z,18.12
2023-05-07T19:01:53.170Z,18.05
2023-05-07T19:04:20.280Z,18.03
2023-05-07T19:06:47.008Z,17.99
2023-05-07T19:09:13.502Z,17.96
2023-05-07T19:11:40.005Z,17.94
2023-05-07T19:14:06.661Z,17.89
2023-05-07T19:16:33.345Z,17.83
2023-05-07T19:18:59.950Z,17.78
2023-05-07T19:21:28.542Z,17.73
2023-05-07T19:23:57.328Z,17.70
2023-05-07T19:26:24.358Z,17.67
2023-05-07T19:29:01.674Z,17.65
2023-05-07T19:31:38.496Z,17.59
2023-05-07T19:34:05.195Z,17.51
2023-05-07T19:36:34.341Z,17.46
2023-05-07T19:39:00.959Z,17.44
2023-05-07T19:41:29.023Z,17.40
2023-05-07T19:43:55.584Z,17.41
2023-05-07T19:46:22.226Z,17.35
2023-05-07T19:48:48.882Z,17.28
2023-05-07T19:51:15.551Z,17.23
2023-05-07T19:53:42.184Z,17.17
2023-05-07T19:56:10.653Z,17.11
2023-05-07T19:58:37.678Z,17.05
2023-05-07T20:01:05.313Z,16.98
2023-05-07T20:03:33.474Z,16.93
2023-05-07T20:06:00.683Z,16.85
2023-05-07T20:08:28.143Z,16.82
2023-05-07T20:10:57.085Z,16.71
2023-05-07T20:13:24.220Z,16.67
2023-05-07T20:15:50.920Z,16.60
2023-05-07T20:18:17.484Z,16.52
2023-05-07T20:20:45.322Z,16.45
2023-05-07T20:23:11.980Z,16.39
2023-05-07T20:25:41.170Z,16.33
2023-05-07T20:28:07.661Z,16.27
2023-05-07T20:30:34.191Z,16.22
2023-05-07T20:33:01.105Z,16.17
2023-05-07T20:35:27.652Z,16.10
2023-05-07T20:37:54.195Z,16.10
2023-05-07T20:40:20.943Z,16.07
2023-05-07T20:42:47.504Z,16.06
2023-05-07T20:45:14.175Z,16.04
2023-05-07T20:47:40.899Z,15.99
2023-05-07T20:50:07.702Z,15.94
2023-05-07T20:52:34.994Z,15.92
2023-05-07T20:55:01.638Z,15.90
2023-05-07T20:57:28.218Z,15.83
2023-05-07T20:59:54.766Z,15.78
2023-05-07T21:02:21.292Z,15.78
2023-05-07T21:04:51.263Z,15.75
2023-05-07T21:07:18.156Z,15.71
2023-05-07T21:09:44.686Z,15.68
2023-05-07T21:12:11.214Z,15.62
2023-05-07T21:14:38.721Z,15.60
2023-05-07T21:17:07.156Z,15.56
2023-05-07T21:19:34.055Z,15.55
2023-05-07T21:22:01.007Z,15.53
2023-05-07T21:24:27.500Z,15.51
2023-05-07T21:26:55.995Z,15.48
2023-05-07T21:29:23.845Z,15.45
2023-05-07T21:31:50.454Z,15.43
2023-05-07T21:34:17.001Z,15.41
2023-05-07T21:36:43.532Z,15.40
2023-05-07T21:39:10.886Z,15.38
2023-05-07T21:41:37.613Z,15.34
2023-05-07T21:44:04.719Z,15.31
2023-05-07T21:46:31.356Z,15.26
2023-05-07T21:48:57.850Z,15.24
2023-05-07T21:51:24.409Z,15.19
2023-05-07T21:53:50.947Z,15.16
2023-05-07T21:56:17.511Z,15.11
2023-05-07T21:58:44.018Z,15.08
2023-05-07T22:01:12.707Z,15.06
2023-05-07T22:03:39.985Z,15.02
2023-05-07T22:06:06.941Z,14.97
2023-05-07T22:08:33.432Z,14.90
2023-05-07T22:10:59.970Z,14.87
2023-05-07T22:13:26.677Z,14.84
2023-05-07T22:15:57.564Z,14.76
2023-05-07T22:18:25.632Z,14.75
2023-05-07T22:20:52.375Z,14.71
2023-05-07T22:23:18.947Z,14.68
2023-05-07T22:25:45.511Z,14.63
2023-05-07T22:28:11.974Z,14.60
2023-05-07T22:30:38.603Z,14.54
2023-05-07T22:33:05.090Z,14.53
2023-05-07T22:35:31.692Z,14.46
2023-05-07T22:37:58.516Z,14.40
2023-05-07T22:40:25.018Z,14.39
2023-05-07T22:42:51.581Z,14.32
2023-05-07T22:45:18.200Z,14.27
2023-05-07T22:47:44.793Z,14.22
2023-05-07T22:50:12.721Z,14.17
2023-05-07T22:52:39.483Z,14.11
2023-05-07T22:55:06.721Z,14.04
2023-05-07T22:57:33.240Z,14.02
2023-05-07T22:59:59.801Z,13.98
2023-05-07T23:02:28.848Z,13.92
2023-05-07T23:04:58.239Z,13.89
2023-05-07T23:07:24.752Z,13.85
2023-05-07T23:09:51.271Z,13.81
2023-05-07T23:12:17.933Z,13.75
2023-05-07T23:14:44.555Z,13.73
2023-05-07T23:17:11.175Z,13.71
2023-05-07T23:19:38.222Z,13.67
2023-05-07T23:22:04.734Z,13.64
2023-05-07T23:24:31.306Z,13.62
2023-05-07T23:26:57.819Z,13.56
2023-05-07T23:29:24.353Z,13.53
2023-05-07T23:31:51.000Z,13.50
2023-05-07T23:34:23.696Z,13.50
2023-05-07T23:36:51.178Z,13.44
2023-05-07T23:39:18.352Z,13.43
2023-05-07T23:41:45.279Z,13.37
2023-05-07T23:44:13.310Z,13.34
2023-05-07T23:46:39.897Z,13.32
2023-05-07T23:49:06.440Z,13.26
2023-05-07T23:51:33.016Z,13.18
2023-05-07T23:54:00.112Z,13.12
2023-05-07T23:56:26.674Z,13.04
2023-05-07T23:58:53.235Z,12.97
